Terminal Aerodrome Forecast
Issued by NWS Lake Charles, LA

Home | Current Version | Previous Version | Text Only | Print | Product List | Glossary On
Versions: 1 2 3 4 5 6 7 8 9 10 11 12 13 14
000
FTUS44 KLCH 192300
TAFBPT
TAF
KBPT 192320Z 2000/2024 12007KT P6SM SKC
     FM201500 18008KT P6SM VCTS SCT025CB
      TEMPO 2018/2022 6SM -TSRA BKN025CB
     FM202300 18009KT P6SM BKN250=

USA.gov is the U.S. government's official web portal to all federal, state and local government web resources and services.